createdAt,value
2023-07-08T00:00:07.198Z,9.711906
2023-07-08T00:01:07.189Z,9.711868
2023-07-08T00:02:07.259Z,9.711741
2023-07-08T00:03:07.211Z,9.711963
2023-07-08T00:04:07.222Z,9.711935
2023-07-08T00:05:07.147Z,9.711982
2023-07-08T00:06:07.144Z,9.711904
2023-07-08T00:07:07.138Z,9.711853
2023-07-08T00:08:07.123Z,9.711845
2023-07-08T00:09:07.160Z,9.711917
2023-07-08T00:10:08.116Z,9.711735
2023-07-08T00:11:07.104Z,9.711855
2023-07-08T00:12:07.107Z,9.711800
2023-07-08T00:13:07.083Z,9.711821
2023-07-08T00:14:07.172Z,9.711842
2023-07-08T00:15:07.076Z,9.711783
2023-07-08T00:16:07.127Z,9.711780
2023-07-08T00:17:07.070Z,9.711860
2023-07-08T00:18:07.095Z,9.711855
2023-07-08T00:23:58.286Z,9.711798
2023-07-08T00:24:58.271Z,9.711780
2023-07-08T00:25:58.284Z,9.711872
2023-07-08T00:26:58.253Z,9.711872
2023-07-08T00:27:58.248Z,9.711835
2023-07-08T00:28:58.229Z,9.711816
2023-07-08T00:29:58.236Z,9.711783
2023-07-08T00:30:58.498Z,9.711671
2023-07-08T00:31:58.229Z,9.711691
2023-07-08T00:32:58.289Z,9.711767
2023-07-08T00:33:58.651Z,9.711802
2023-07-08T00:34:58.194Z,9.711861
2023-07-08T00:35:58.186Z,9.711910
2023-07-08T00:36:58.181Z,9.711823
2023-07-08T00:37:58.169Z,9.711748
2023-07-08T00:38:58.189Z,9.711706
2023-07-08T00:39:58.184Z,9.711609
2023-07-08T00:40:58.274Z,9.711616
2023-07-08T00:41:58.193Z,9.711648
2023-07-08T00:42:58.127Z,9.711698
2023-07-08T00:43:58.231Z,9.711679
2023-07-08T00:44:58.462Z,9.711782
2023-07-08T00:46:03.058Z,9.711765
2023-07-08T00:47:11.033Z,9.711793
2023-07-08T00:47:58.176Z,9.711615
2023-07-08T00:48:58.078Z,9.711636
2023-07-08T00:49:58.090Z,9.711750
2023-07-08T00:50:58.280Z,9.711678
2023-07-08T00:51:58.049Z,9.711611
2023-07-08T00:52:58.121Z,9.711654
2023-07-08T00:53:58.038Z,9.711721
2023-07-08T00:54:59.026Z,9.711713
2023-07-08T00:55:58.026Z,9.711779
2023-07-08T00:56:58.011Z,9.711733
2023-07-08T00:57:58.005Z,9.711805
2023-07-08T00:58:58.038Z,9.711802
2023-07-08T00:59:58.004Z,9.711743
2023-07-08T01:00:58.214Z,9.711814
2023-07-08T01:01:58.012Z,9.711653
2023-07-08T01:02:58.052Z,9.711625
2023-07-08T01:03:58.012Z,9.711779
2023-07-08T01:04:57.959Z,9.711483
2023-07-08T01:05:57.928Z,9.711489
2023-07-08T01:06:57.937Z,9.711603
2023-07-08T01:07:57.939Z,9.711528
2023-07-08T01:08:57.919Z,9.711500
2023-07-08T01:09:57.919Z,9.711562
2023-07-08T01:11:00.082Z,9.711550
2023-07-08T01:11:57.903Z,9.711484
2023-07-08T01:12:57.869Z,9.711518
2023-07-08T01:13:57.896Z,9.711559
2023-07-08T01:14:57.876Z,9.711493
2023-07-08T01:15:57.888Z,9.711672
2023-07-08T01:16:58.618Z,9.711663
2023-07-08T01:17:57.915Z,9.711435
2023-07-08T01:18:57.856Z,9.711706
2023-07-08T01:19:57.832Z,9.711670
2023-07-08T01:20:57.918Z,9.711598
2023-07-08T01:21:57.871Z,9.711765
2023-07-08T01:22:57.802Z,9.711657
2023-07-08T01:23:57.816Z,9.711747
2023-07-08T01:24:57.808Z,9.711980
2023-07-08T01:25:57.788Z,9.711854
2023-07-08T01:26:57.803Z,9.711703
2023-07-08T01:27:57.773Z,9.711672
2023-07-08T01:28:57.757Z,9.711727
2023-07-08T01:29:57.764Z,9.711698
2023-07-08T01:30:57.867Z,9.711669
2023-07-08T01:31:57.777Z,9.711678
2023-07-08T01:32:57.768Z,9.711726
2023-07-08T01:33:57.719Z,9.711674
2023-07-08T01:34:57.704Z,9.711684
2023-07-08T01:35:57.726Z,9.711735
2023-07-08T01:36:57.689Z,9.711633
2023-07-08T01:37:57.687Z,9.711699
2023-07-08T01:38:57.680Z,9.711729
2023-07-08T01:39:57.672Z,9.711761
2023-07-08T01:40:57.827Z,9.711784
2023-07-08T01:41:57.657Z,9.711764
2023-07-08T01:42:57.649Z,9.711722
2023-07-08T01:43:57.650Z,9.711757
2023-07-08T01:44:57.628Z,9.711683
2023-07-08T01:45:57.634Z,9.711669
2023-07-08T01:46:57.608Z,9.711471
2023-07-08T01:47:57.670Z,9.711658
2023-07-08T01:48:57.601Z,9.711732
2023-07-08T01:49:57.586Z,9.711770
2023-07-08T01:50:59.711Z,9.712076
2023-07-08T01:51:57.578Z,9.711786
2023-07-08T01:52:57.566Z,9.711751
2023-07-08T01:53:57.550Z,9.711553
2023-07-08T01:54:57.556Z,9.711807
2023-07-08T01:55:57.545Z,9.711757
2023-07-08T01:56:57.572Z,9.711694
2023-07-08T01:57:57.506Z,9.711656
2023-07-08T01:58:57.516Z,9.711684
2023-07-08T01:59:57.502Z,9.711754
2023-07-08T02:00:57.731Z,9.711936
2023-07-08T02:01:57.764Z,9.711845
2023-07-08T02:02:57.585Z,9.711808
2023-07-08T02:03:57.478Z,9.711778
2023-07-08T02:04:57.472Z,9.711780
2023-07-08T02:05:57.567Z,9.712014
2023-07-08T02:06:57.469Z,9.711802
2023-07-08T02:07:57.455Z,9.711823
2023-07-08T02:08:57.445Z,9.711832
2023-07-08T02:09:57.428Z,9.711876
2023-07-08T02:10:57.777Z,9.711987
2023-07-08T02:11:57.421Z,9.711823
2023-07-08T02:12:57.399Z,9.711770
2023-07-08T02:13:57.428Z,9.711782
2023-07-08T02:14:57.415Z,9.711786
2023-07-08T02:15:57.387Z,9.711714
2023-07-08T02:16:57.371Z,9.711934
2023-07-08T02:17:57.399Z,9.712481
2023-07-08T02:18:57.342Z,9.712486
2023-07-08T02:19:57.353Z,9.712216
2023-07-08T02:20:57.542Z,9.712034
2023-07-08T02:21:57.326Z,9.711828
2023-07-08T02:22:57.325Z,9.711844
2023-07-08T02:23:57.329Z,9.711721
2023-07-08T02:24:57.302Z,9.711840
2023-07-08T02:25:57.334Z,9.712338
2023-07-08T02:26:57.331Z,9.712154
2023-07-08T02:27:57.278Z,9.711926
2023-07-08T02:28:57.268Z,9.711821
2023-07-08T02:29:57.260Z,9.711911
2023-07-08T02:30:57.328Z,9.712047
2023-07-08T02:31:57.280Z,9.711813
2023-07-08T02:32:57.296Z,9.711865
2023-07-08T02:33:57.256Z,9.711744
2023-07-08T02:34:57.223Z,9.711759
2023-07-08T02:35:58.224Z,9.711755
2023-07-08T02:36:57.223Z,9.712058
2023-07-08T02:37:57.216Z,9.711839
2023-07-08T02:38:57.205Z,9.711874
2023-07-08T02:39:57.189Z,9.711931
2023-07-08T02:40:57.353Z,9.711911
2023-07-08T02:41:57.166Z,9.711989
2023-07-08T02:42:57.257Z,9.712055
2023-07-08T02:43:57.137Z,9.712271
2023-07-08T02:44:57.143Z,9.712178
2023-07-08T02:45:57.150Z,9.712008
2023-07-08T02:46:58.097Z,9.711952
2023-07-08T02:47:57.166Z,9.712010
2023-07-08T02:48:57.143Z,9.712219
2023-07-08T02:49:57.110Z,9.712524
2023-07-08T02:50:57.405Z,9.712631
2023-07-08T02:51:57.705Z,9.712360
2023-07-08T02:52:57.081Z,9.712373
2023-07-08T02:53:57.074Z,9.712503
2023-07-08T02:54:57.070Z,9.713542
2023-07-08T02:55:57.057Z,9.713322
2023-07-08T02:56:57.064Z,9.713709
2023-07-08T02:57:57.036Z,9.713027
2023-07-08T02:58:57.043Z,9.712884
2023-07-08T02:59:57.040Z,9.712498
2023-07-08T03:00:57.102Z,9.712286
2023-07-08T03:01:57.021Z,9.712135
2023-07-08T03:02:57.094Z,9.712170
2023-07-08T03:03:57.114Z,9.711975
2023-07-08T03:04:56.992Z,9.712029
2023-07-08T03:05:56.982Z,9.711770
2023-07-08T03:06:56.964Z,9.712543
2023-07-08T03:07:56.979Z,9.712671
2023-07-08T03:08:56.969Z,9.711783
2023-07-08T03:09:56.971Z,9.711650
2023-07-08T03:10:57.053Z,9.711698
2023-07-08T03:11:56.927Z,9.711643
2023-07-08T03:12:56.928Z,9.711636
2023-07-08T03:13:57.026Z,9.711625
2023-07-08T03:14:56.913Z,9.711595
2023-07-08T03:15:56.912Z,9.711572
2023-07-08T03:16:56.950Z,9.711565
2023-07-08T03:17:56.904Z,9.711647
2023-07-08T03:18:56.886Z,9.711661
2023-07-08T03:19:56.896Z,9.711658
2023-07-08T03:20:57.030Z,9.711609
2023-07-08T03:21:56.866Z,9.711637
2023-07-08T03:22:56.861Z,9.711652
2023-07-08T03:23:56.851Z,9.711740
2023-07-08T03:24:56.831Z,9.711871
2023-07-08T03:25:56.852Z,9.711750
2023-07-08T03:26:56.816Z,9.711717
2023-07-08T03:27:56.798Z,9.711697
2023-07-08T03:28:56.799Z,9.711654
2023-07-08T03:29:56.796Z,9.711636
2023-07-08T03:30:56.814Z,9.711665
2023-07-08T03:31:56.764Z,9.711656
2023-07-08T03:32:56.812Z,9.711678
2023-07-08T03:33:56.759Z,9.711699
2023-07-08T03:34:56.753Z,9.711700
2023-07-08T03:35:56.745Z,9.711701
2023-07-08T03:36:56.744Z,9.711695
2023-07-08T03:37:56.726Z,9.711676
2023-07-08T03:38:56.771Z,9.711705
2023-07-08T03:39:56.725Z,9.711727
2023-07-08T03:40:56.781Z,9.711752
2023-07-08T03:41:56.701Z,9.711714
2023-07-08T03:42:56.683Z,9.711724
2023-07-08T03:43:56.688Z,9.711747
2023-07-08T03:44:56.683Z,9.711630
2023-07-08T03:45:56.683Z,9.711666
2023-07-08T03:46:56.727Z,9.711739
2023-07-08T03:47:56.743Z,9.711732
2023-07-08T03:48:56.675Z,9.711396
2023-07-08T03:49:56.659Z,9.711615
2023-07-08T03:50:56.640Z,9.711675
2023-07-08T03:51:56.622Z,9.711504
2023-07-08T03:52:56.652Z,9.711612
2023-07-08T03:53:56.620Z,9.711669
2023-07-08T03:54:56.595Z,9.711629
2023-07-08T03:55:56.604Z,9.711658
2023-07-08T03:56:56.610Z,9.711633
2023-07-08T03:57:56.601Z,9.711638
2023-07-08T03:58:56.601Z,9.711780
2023-07-08T03:59:56.560Z,9.711674
2023-07-08T04:00:56.582Z,9.711677
2023-07-08T04:01:56.621Z,9.711705
2023-07-08T04:02:56.587Z,9.711565
2023-07-08T04:03:56.600Z,9.711923
2023-07-08T04:04:56.519Z,9.711786
2023-07-08T04:05:56.520Z,9.711761
2023-07-08T04:06:56.522Z,9.711580
2023-07-08T04:07:56.514Z,9.711620
2023-07-08T04:08:56.488Z,9.711938
2023-07-08T04:09:56.491Z,9.712037
2023-07-08T04:10:56.466Z,9.711906
2023-07-08T04:11:56.460Z,9.712233
2023-07-08T04:12:56.469Z,9.712152
2023-07-08T04:13:56.524Z,9.712346
2023-07-08T04:14:56.458Z,9.712169
2023-07-08T04:15:56.440Z,9.712289
2023-07-08T04:16:56.538Z,9.712199
2023-07-08T04:17:56.432Z,9.711855
2023-07-08T04:18:56.411Z,9.711775
2023-07-08T04:19:56.405Z,9.711752
2023-07-08T04:21:57.389Z,9.711509
2023-07-08T04:22:56.427Z,9.711633
2023-07-08T04:23:56.377Z,9.711645
2023-07-08T04:24:56.383Z,9.711654
2023-07-08T04:25:56.367Z,9.711807
2023-07-08T04:26:56.348Z,9.711951
2023-07-08T04:27:56.360Z,9.711911
2023-07-08T04:28:56.406Z,9.712037
2023-07-08T04:29:56.351Z,9.711802
2023-07-08T04:30:56.370Z,9.711641
2023-07-08T04:31:56.320Z,9.711696
2023-07-08T04:32:56.363Z,9.711802
2023-07-08T04:33:56.304Z,9.711939
2023-07-08T04:34:56.298Z,9.711973
2023-07-08T04:35:56.302Z,9.711860
2023-07-08T04:36:56.310Z,9.711841
2023-07-08T04:37:56.261Z,9.712093
2023-07-08T04:38:56.282Z,9.712021
2023-07-08T04:39:56.284Z,9.712033
2023-07-08T04:40:56.253Z,9.712103
2023-07-08T04:41:56.238Z,9.712030
2023-07-08T04:42:56.250Z,9.711784
2023-07-08T04:43:56.224Z,9.711575
2023-07-08T04:44:56.208Z,9.711560
2023-07-08T04:45:56.218Z,9.711624
2023-07-08T04:46:56.237Z,9.711685
2023-07-08T04:47:56.202Z,9.711734
2023-07-08T04:48:56.181Z,9.711761
2023-07-08T04:49:56.183Z,9.711823
2023-07-08T04:50:56.200Z,9.711785
2023-07-08T04:51:56.174Z,9.711728
2023-07-08T04:52:56.184Z,9.711689
2023-07-08T04:53:56.193Z,9.711496
2023-07-08T04:54:56.748Z,9.711581
2023-07-08T04:55:56.279Z,9.711774
2023-07-08T04:56:56.129Z,9.711576
2023-07-08T04:57:56.142Z,9.711395
2023-07-08T04:58:56.115Z,9.711393
2023-07-08T04:59:56.130Z,9.711628
2023-07-08T05:00:56.126Z,9.711825
2023-07-08T05:01:56.140Z,9.711658
2023-07-08T05:02:56.113Z,9.711425
2023-07-08T05:03:56.114Z,9.711606
2023-07-08T05:04:56.077Z,9.711722
2023-07-08T05:05:56.069Z,9.711885
2023-07-08T05:06:56.087Z,9.711942
2023-07-08T05:07:56.049Z,9.711777
2023-07-08T05:08:56.048Z,9.711698
2023-07-08T05:09:56.035Z,9.711724
2023-07-08T05:10:56.779Z,9.711699
2023-07-08T05:11:56.020Z,9.711667
2023-07-08T05:12:56.046Z,9.711641
2023-07-08T05:13:56.062Z,9.711644
2023-07-08T05:14:56.011Z,9.711648
2023-07-08T05:15:56.019Z,9.711667
2023-07-08T05:16:55.988Z,9.711629
2023-07-08T05:17:56.011Z,9.711693
2023-07-08T05:18:55.961Z,9.711684
2023-07-08T05:19:55.964Z,9.711669
2023-07-08T05:20:55.982Z,9.711725
2023-07-08T05:21:55.969Z,9.711671
2023-07-08T05:22:55.961Z,9.711649
2023-07-08T05:23:55.950Z,9.711630
2023-07-08T05:24:55.920Z,9.711645
2023-07-08T05:25:55.944Z,9.711677
2023-07-08T05:26:55.922Z,9.711663
2023-07-08T05:27:55.931Z,9.711721
2023-07-08T05:28:55.898Z,9.711676
2023-07-08T05:29:55.893Z,9.711651
2023-07-08T05:30:55.880Z,9.711662
2023-07-08T05:31:55.898Z,9.711681
2023-07-08T05:32:55.958Z,9.711645
2023-07-08T05:33:55.874Z,9.711702
2023-07-08T05:34:55.875Z,9.711611
2023-07-08T05:35:55.859Z,9.711567
2023-07-08T05:36:55.847Z,9.711625
2023-07-08T05:37:55.864Z,9.711620
2023-07-08T05:38:55.829Z,9.711663
2023-07-08T05:39:55.825Z,9.711670
2023-07-08T05:40:56.856Z,9.711625
2023-07-08T05:41:55.813Z,9.711659
2023-07-08T05:42:55.810Z,9.711606
2023-07-08T05:43:55.813Z,9.711617
2023-07-08T05:44:55.796Z,9.711709
2023-07-08T05:46:10.606Z,9.711715
2023-07-08T05:46:57.914Z,9.711629
2023-07-08T05:47:55.794Z,9.711679
2023-07-08T05:48:55.764Z,9.711653
2023-07-08T05:49:55.762Z,9.711626
2023-07-08T05:50:55.766Z,9.711632
2023-07-08T05:51:55.757Z,9.711640
2023-07-08T05:52:55.745Z,9.711633
2023-07-08T05:53:55.754Z,9.711595
2023-07-08T05:54:55.721Z,9.711597
2023-07-08T05:55:55.722Z,9.711626
2023-07-08T05:56:55.724Z,9.711600
2023-07-08T05:57:55.703Z,9.711594
2023-07-08T05:58:55.764Z,9.711615
2023-07-08T05:59:55.716Z,9.711614
2023-07-08T06:00:55.767Z,9.711647
2023-07-08T06:01:55.915Z,9.711627
2023-07-08T06:02:55.716Z,9.711606
2023-07-08T06:03:55.747Z,9.711583
2023-07-08T06:04:55.661Z,9.711566
2023-07-08T06:05:56.178Z,9.711533
2023-07-08T06:06:55.662Z,9.711641
2023-07-08T06:07:55.672Z,9.711586
2023-07-08T06:08:55.652Z,9.711715
2023-07-08T06:09:55.638Z,9.711699
2023-07-08T06:10:57.257Z,9.711686
2023-07-08T06:11:55.762Z,9.711729
2023-07-08T06:12:55.624Z,9.711757
2023-07-08T06:13:55.645Z,9.711690
2023-07-08T06:14:55.605Z,9.711629
2023-07-08T06:15:55.637Z,9.711745
2023-07-08T06:16:55.646Z,9.711692
2023-07-08T06:17:55.627Z,9.711492
2023-07-08T06:18:55.565Z,9.711735
2023-07-08T06:19:55.566Z,9.711709
2023-07-08T06:20:55.563Z,9.711628
2023-07-08T06:22:05.057Z,9.711589
2023-07-08T06:22:56.573Z,9.711567
2023-07-08T06:23:55.558Z,9.711569
2023-07-08T06:24:55.558Z,9.711617
2023-07-08T06:25:56.557Z,9.711849
2023-07-08T06:27:57.205Z,9.711609
2023-07-08T06:28:56.193Z,9.711581
2023-07-08T06:29:55.511Z,9.711463
2023-07-08T06:30:55.504Z,9.711676
2023-07-08T06:31:55.619Z,9.711563
2023-07-08T06:32:55.679Z,9.711629
2023-07-08T06:33:55.477Z,9.711653
2023-07-08T06:34:55.497Z,9.711577
2023-07-08T06:35:55.486Z,9.711618
2023-07-08T06:36:55.483Z,9.711576
2023-07-08T06:37:55.458Z,9.711695
2023-07-08T06:38:55.464Z,9.711770
2023-07-08T06:39:55.439Z,9.711658
2023-07-08T06:40:55.446Z,9.711676
2023-07-08T06:41:55.431Z,9.711470
2023-07-08T06:42:55.431Z,9.711546
2023-07-08T06:43:55.427Z,9.711535
2023-07-08T06:44:55.426Z,9.711427
2023-07-08T06:45:55.427Z,9.711299
2023-07-08T06:46:55.392Z,9.711801
2023-07-08T06:47:55.438Z,9.712043
2023-07-08T06:48:55.375Z,9.712266
2023-07-08T06:49:57.430Z,9.712430
2023-07-08T06:50:55.362Z,9.712120
2023-07-08T06:51:55.372Z,9.711711
2023-07-08T06:52:55.361Z,9.711800
2023-07-08T06:53:55.349Z,9.711900
2023-07-08T06:54:55.467Z,9.712026
2023-07-08T06:55:55.346Z,9.712090
2023-07-08T06:56:55.321Z,9.712026
2023-07-08T06:57:55.341Z,9.712154
2023-07-08T06:58:55.379Z,9.711911
2023-07-08T06:59:55.311Z,9.711884
2023-07-08T07:00:55.325Z,9.711717
2023-07-08T07:01:55.348Z,9.712074
2023-07-08T07:02:55.313Z,9.712129
2023-07-08T07:03:55.379Z,9.712372
2023-07-08T07:04:55.265Z,9.712383
2023-07-08T07:05:55.293Z,9.712434
2023-07-08T07:06:55.275Z,9.712248
2023-07-08T07:07:55.254Z,9.712116
2023-07-08T07:08:55.241Z,9.712111
2023-07-08T07:09:55.222Z,9.712006
2023-07-08T07:10:55.238Z,9.712080
2023-07-08T07:11:55.217Z,9.712245
2023-07-08T07:12:55.217Z,9.712248
2023-07-08T07:13:55.270Z,9.712380
2023-07-08T07:14:55.224Z,9.712401
2023-07-08T07:15:55.314Z,9.712339
2023-07-08T07:17:07.167Z,9.712244
2023-07-08T07:17:57.172Z,9.712421
2023-07-08T07:18:55.176Z,9.712335
2023-07-08T07:19:55.210Z,9.712388
2023-07-08T07:20:55.801Z,9.712242
2023-07-08T07:21:55.157Z,9.712340
2023-07-08T07:22:55.165Z,9.712282
2023-07-08T07:23:55.128Z,9.712192
2023-07-08T07:24:55.105Z,9.712440
2023-07-08T07:25:55.115Z,9.712306
2023-07-08T07:26:55.138Z,9.712102
2023-07-08T07:27:55.137Z,9.711908
2023-07-08T07:28:55.732Z,9.711745
2023-07-08T07:29:55.084Z,9.711673
2023-07-08T07:30:55.119Z,9.712046
2023-07-08T07:31:55.110Z,9.712062
2023-07-08T07:32:55.105Z,9.712120
2023-07-08T07:33:55.044Z,9.712069
2023-07-08T07:34:55.047Z,9.711798
2023-07-08T07:35:55.099Z,9.711718
2023-07-08T07:36:57.280Z,9.711541
2023-07-08T07:37:55.070Z,9.711777
2023-07-08T07:38:55.012Z,9.711658
2023-07-08T07:39:55.013Z,9.711740
2023-07-08T07:40:55.016Z,9.711683
2023-07-08T07:41:54.992Z,9.711684
2023-07-08T07:42:55.009Z,9.711726
2023-07-08T07:43:54.979Z,9.711752
2023-07-08T07:44:54.994Z,9.711697
2023-07-08T07:45:54.978Z,9.711581
2023-07-08T07:46:55.030Z,9.711679
2023-07-08T07:47:54.989Z,9.711783
2023-07-08T07:48:55.747Z,9.711661
2023-07-08T07:49:54.986Z,9.711713
2023-07-08T07:50:54.966Z,9.711750
2023-07-08T07:51:54.986Z,9.711602
2023-07-08T07:52:54.924Z,9.711615
2023-07-08T07:53:54.896Z,9.711663
2023-07-08T07:54:54.935Z,9.711700
2023-07-08T07:55:54.915Z,9.711749
2023-07-08T07:56:54.894Z,9.711808
2023-07-08T07:57:54.886Z,9.711860
2023-07-08T07:58:54.868Z,9.711802
2023-07-08T07:59:54.864Z,9.711853
2023-07-08T08:00:54.865Z,9.711808
2023-07-08T08:01:54.861Z,9.711810
2023-07-08T08:02:54.881Z,9.711780
2023-07-08T08:03:54.942Z,9.711632
2023-07-08T08:04:55.354Z,9.711637
2023-07-08T08:05:54.814Z,9.711692
2023-07-08T08:06:54.819Z,9.711613
2023-07-08T08:07:54.857Z,9.711693
2023-07-08T08:08:54.793Z,9.711775
2023-07-08T08:09:54.778Z,9.711685
2023-07-08T08:10:54.805Z,9.711712
2023-07-08T08:11:54.791Z,9.711647
2023-07-08T08:12:54.774Z,9.711719
2023-07-08T08:13:54.845Z,9.711713
2023-07-08T08:14:54.912Z,9.711775
2023-07-08T08:15:55.335Z,9.711740
2023-07-08T08:16:54.839Z,9.711761
2023-07-08T08:17:55.420Z,9.711711
2023-07-08T08:18:54.715Z,9.711741
2023-07-08T08:19:54.779Z,9.711715
2023-07-08T08:20:54.701Z,9.711661
2023-07-08T08:21:54.736Z,9.711672
2023-07-08T08:22:54.692Z,9.711691
2023-07-08T08:23:54.705Z,9.711720
2023-07-08T08:24:54.693Z,9.711719
2023-07-08T08:25:54.684Z,9.711670
2023-07-08T08:26:54.666Z,9.711703
2023-07-08T08:27:54.671Z,9.711656
2023-07-08T08:28:54.665Z,9.711696
2023-07-08T08:29:54.637Z,9.711640
2023-07-08T08:30:54.643Z,9.711683
2023-07-08T08:31:54.609Z,9.711736
2023-07-08T08:32:54.660Z,9.711665
2023-07-08T08:33:54.640Z,9.711657
2023-07-08T08:34:54.619Z,9.711711
2023-07-08T08:35:54.584Z,9.711629
2023-07-08T08:36:54.589Z,9.711666
2023-07-08T08:37:54.891Z,9.711688
2023-07-08T08:38:54.580Z,9.711766
2023-07-08T08:39:54.559Z,9.711754
2023-07-08T08:40:54.565Z,9.711645
2023-07-08T08:41:54.576Z,9.711467
2023-07-08T08:42:54.578Z,9.711646
2023-07-08T08:43:55.617Z,9.711678
2023-07-08T08:44:55.558Z,9.711675
2023-07-08T08:45:54.538Z,9.711688
2023-07-08T08:46:54.721Z,9.711741
2023-07-08T08:47:54.527Z,9.711664
2023-07-08T08:48:54.533Z,9.711707
2023-07-08T08:49:55.270Z,9.711748
2023-07-08T08:50:54.477Z,9.711832
2023-07-08T08:51:54.476Z,9.711827
2023-07-08T08:52:54.468Z,9.711783
2023-07-08T08:53:54.456Z,9.711704
2023-07-08T08:54:54.465Z,9.711657
2023-07-08T08:55:54.455Z,9.711654
2023-07-08T08:56:55.398Z,9.711686
2023-07-08T08:57:54.446Z,9.711643
2023-07-08T08:58:54.567Z,9.711714
2023-07-08T08:59:54.410Z,9.711736
2023-07-08T09:00:54.416Z,9.711801
2023-07-08T09:01:54.418Z,9.711665
2023-07-08T09:02:54.515Z,9.711666
2023-07-08T09:03:54.451Z,9.711821
2023-07-08T09:04:55.280Z,9.712053
2023-07-08T09:05:54.390Z,9.711690
2023-07-08T09:06:54.407Z,9.711713
2023-07-08T09:07:54.348Z,9.711700
2023-07-08T09:08:55.368Z,9.711750
2023-07-08T09:09:54.353Z,9.711544
2023-07-08T09:10:54.349Z,9.711473
2023-07-08T09:11:54.349Z,9.711594
2023-07-08T09:12:54.332Z,9.711775
2023-07-08T09:13:54.421Z,9.711938
2023-07-08T09:14:54.320Z,9.711896
2023-07-08T09:15:54.348Z,9.711933
2023-07-08T09:16:54.412Z,9.711796
2023-07-08T09:17:54.326Z,9.711716
2023-07-08T09:18:54.313Z,9.711747
2023-07-08T09:19:54.279Z,9.711730
2023-07-08T09:20:54.250Z,9.711685
2023-07-08T09:21:54.322Z,9.711733
2023-07-08T09:22:54.354Z,9.711670
2023-07-08T09:23:54.258Z,9.711694
2023-07-08T09:24:54.226Z,9.711690
2023-07-08T09:25:54.835Z,9.711666
2023-07-08T09:26:54.862Z,9.711680
2023-07-08T09:27:54.219Z,9.711663
2023-07-08T09:28:54.200Z,9.711693
2023-07-08T09:29:54.215Z,9.711683
2023-07-08T09:30:54.202Z,9.711693
2023-07-08T09:31:54.274Z,9.711681
2023-07-08T09:32:54.231Z,9.711688
2023-07-08T09:33:54.173Z,9.711697
2023-07-08T09:34:54.159Z,9.711686
2023-07-08T09:35:54.143Z,9.711709
2023-07-08T09:36:54.159Z,9.711740
2023-07-08T09:37:54.204Z,9.711716
2023-07-08T09:38:54.133Z,9.711690
2023-07-08T09:39:54.128Z,9.711659
2023-07-08T09:40:54.098Z,9.711683
2023-07-08T09:41:54.109Z,9.711743
2023-07-08T09:42:54.126Z,9.711720
2023-07-08T09:43:54.114Z,9.711688
2023-07-08T09:44:54.105Z,9.711654
2023-07-08T09:45:54.079Z,9.711705
2023-07-08T09:46:54.197Z,9.711716
2023-07-08T09:47:54.165Z,9.711672
2023-07-08T09:48:54.051Z,9.711735
2023-07-08T09:49:54.114Z,9.711715
2023-07-08T09:50:54.046Z,9.711682
2023-07-08T09:51:54.043Z,9.711737
2023-07-08T09:52:54.984Z,9.711767
2023-07-08T09:53:54.001Z,9.711673
2023-07-08T09:54:54.049Z,9.711697
2023-07-08T09:55:53.998Z,9.711775
2023-07-08T09:56:53.989Z,9.711672
2023-07-08T09:57:53.979Z,9.711730
2023-07-08T09:58:53.973Z,9.711713
2023-07-08T09:59:53.968Z,9.711663
2023-07-08T10:00:54.798Z,9.711671
2023-07-08T10:01:54.037Z,9.711680
2023-07-08T10:02:53.973Z,9.711652
2023-07-08T10:03:54.812Z,9.711761
2023-07-08T10:04:54.053Z,9.711667
2023-07-08T10:05:53.928Z,9.711658
2023-07-08T10:06:53.924Z,9.711604
2023-07-08T10:07:53.916Z,9.711612
2023-07-08T10:08:54.035Z,9.711669
2023-07-08T10:09:53.895Z,9.711556
2023-07-08T10:10:53.902Z,9.711664
2023-07-08T10:11:53.916Z,9.711588
2023-07-08T10:12:53.874Z,9.711385
2023-07-08T10:14:11.688Z,9.711467
2023-07-08T10:14:55.861Z,9.711405
2023-07-08T10:15:53.919Z,9.711471
2023-07-08T10:16:53.896Z,9.711497
2023-07-08T10:17:53.900Z,9.711837
2023-07-08T10:18:53.828Z,9.712097
2023-07-08T10:19:53.840Z,9.712130
2023-07-08T10:20:53.818Z,9.712137
2023-07-08T10:21:53.816Z,9.712134
2023-07-08T10:22:53.792Z,9.712012
2023-07-08T10:23:53.781Z,9.711979
2023-07-08T10:24:53.794Z,9.711925
2023-07-08T10:25:53.777Z,9.712173
2023-07-08T10:26:53.782Z,9.711933
2023-07-08T10:27:53.757Z,9.711684
2023-07-08T10:28:53.796Z,9.711642
2023-07-08T10:29:53.809Z,9.711685
2023-07-08T10:30:53.739Z,9.711734
2023-07-08T10:31:53.828Z,9.711747
2023-07-08T10:32:53.790Z,9.711759
2023-07-08T10:33:53.745Z,9.711773
2023-07-08T10:34:53.695Z,9.711771
2023-07-08T10:35:53.696Z,9.711756
2023-07-08T10:36:53.733Z,9.711754
2023-07-08T10:37:53.690Z,9.711680
2023-07-08T10:38:53.697Z,9.711679
2023-07-08T10:39:53.681Z,9.711732
2023-07-08T10:40:53.661Z,9.711722
2023-07-08T10:41:53.698Z,9.711730
2023-07-08T10:42:53.659Z,9.711740
2023-07-08T10:43:53.658Z,9.711720
2023-07-08T10:44:53.625Z,9.711689
2023-07-08T10:45:53.645Z,9.711677
2023-07-08T10:46:53.623Z,9.711638
2023-07-08T10:47:53.657Z,9.711727
2023-07-08T10:48:53.619Z,9.711740
2023-07-08T10:49:53.583Z,9.711723
2023-07-08T10:50:53.608Z,9.711719
2023-07-08T10:51:53.587Z,9.711616
2023-07-08T10:52:53.599Z,9.711651
2023-07-08T10:53:55.826Z,9.711622
2023-07-08T10:54:53.620Z,9.711715
2023-07-08T10:55:53.584Z,9.711760
2023-07-08T10:56:53.539Z,9.711649
2023-07-08T10:57:53.547Z,9.711681
2023-07-08T10:58:53.546Z,9.711718
2023-07-08T10:59:53.510Z,9.711644
2023-07-08T11:00:54.440Z,9.711679
2023-07-08T11:01:53.646Z,9.711737
2023-07-08T11:02:53.539Z,9.711686
2023-07-08T11:03:53.559Z,9.711649
2023-07-08T11:04:53.496Z,9.711679
2023-07-08T11:05:53.472Z,9.711627
2023-07-08T11:06:53.465Z,9.711618
2023-07-08T11:07:53.484Z,9.711598
2023-07-08T11:08:53.499Z,9.711540
2023-07-08T11:09:53.451Z,9.711620
2023-07-08T11:11:02.897Z,9.711640
2023-07-08T11:11:55.446Z,9.711612
2023-07-08T11:12:54.419Z,9.711611
2023-07-08T11:13:53.444Z,9.711672
2023-07-08T11:14:53.398Z,9.711631
2023-07-08T11:15:53.448Z,9.711746
2023-07-08T11:16:53.431Z,9.711784
2023-07-08T11:17:53.457Z,9.711726
2023-07-08T11:18:54.412Z,9.711760
2023-07-08T11:19:53.374Z,9.711713
2023-07-08T11:20:54.373Z,9.711627
2023-07-08T11:21:53.359Z,9.711669
2023-07-08T11:22:53.365Z,9.711545
2023-07-08T11:23:53.332Z,9.711543
2023-07-08T11:24:53.363Z,9.711573
2023-07-08T11:25:53.314Z,9.711598
2023-07-08T11:26:53.328Z,9.711661
2023-07-08T11:27:53.342Z,9.711595
2023-07-08T11:28:53.324Z,9.711628
2023-07-08T11:29:53.303Z,9.711601
2023-07-08T11:30:53.323Z,9.711645
2023-07-08T11:31:53.433Z,9.711570
2023-07-08T11:32:53.387Z,9.711532
2023-07-08T11:33:53.326Z,9.711575
2023-07-08T11:34:53.316Z,9.711549
2023-07-08T11:35:53.331Z,9.711585
2023-07-08T11:36:53.342Z,9.711615
2023-07-08T11:37:53.241Z,9.711553
2023-07-08T11:38:53.227Z,9.711499
2023-07-08T11:39:53.242Z,9.711683
2023-07-08T11:40:53.215Z,9.711613
2023-07-08T11:41:53.250Z,9.711603
2023-07-08T11:42:59.629Z,9.711379
2023-07-08T11:43:55.215Z,9.711632
2023-07-08T11:44:53.233Z,9.711605
2023-07-08T11:45:53.201Z,9.711536
2023-07-08T11:46:53.187Z,9.711633
2023-07-08T11:47:53.303Z,9.711705
2023-07-08T11:48:53.170Z,9.711628
2023-07-08T11:49:53.166Z,9.711701
2023-07-08T11:50:53.191Z,9.711796